Time;durP1;ratioP1;P1;durP2;ratioP2;P2;SDS_P1;SDS_P2;PMS_P1;PMS_P2;Temp;Humidity;BMP_temperature;BMP_pressure;BME280_temperature;BME280_humidity;BME280_pressure;Samples;Min_cycle;Max_cycle;Signal;HPM_P1;HPM_P2
2024/04/15 00:00:25;;;;;;;6.78;0.50;;;;;;;;;;5298467;26;96036;-52
2024/04/15 00:02:50;;;;;;;7.07;0.52;;;;;;;;;;5299580;26;96237;-51
2024/04/15 00:05:17;;;;;;;9.88;0.60;;;;;;;;;;5301351;26;96209;-51
2024/04/15 00:07:42;;;;;;;8.57;0.68;;;;;;;;;;5300507;26;95977;-52
2024/04/15 00:10:08;;;;;;;10.13;0.60;;;;;;;;;;5300047;26;97866;-51
2024/04/15 00:12:33;;;;;;;9.55;1.10;;;;;;;;;;5302737;26;98340;-51
2024/04/15 00:14:59;;;;;;;9.05;0.75;;;;;;;;;;5300380;26;96147;-51
2024/04/15 00:17:24;;;;;;;4.47;0.60;;;;;;;;;;5300847;26;96014;-51
2024/04/15 00:19:53;;;;;;;10.18;0.95;;;;;;;;;;5293257;26;96027;-57
2024/04/15 00:22:18;;;;;;;10.32;0.60;;;;;;;;;;5301287;26;97206;-57
2024/04/15 00:24:43;;;;;;;13.00;0.70;;;;;;;;;;5297056;26;97119;-51
2024/04/15 00:27:09;;;;;;;7.90;1.23;;;;;;;;;;5299612;26;97106;-51
2024/04/15 00:29:34;;;;;;;5.78;0.45;;;;;;;;;;5297435;26;95826;-58
2024/04/15 00:31:59;;;;;;;8.10;0.90;;;;;;;;;;5297993;26;95956;-58
2024/04/15 00:34:25;;;;;;;4.38;0.40;;;;;;;;;;5302139;26;96142;-51
2024/04/15 00:36:50;;;;;;;7.10;0.80;;;;;;;;;;5292811;26;96425;-51
2024/04/15 00:39:15;;;;;;;1.85;0.40;;;;;;;;;;5298449;26;95921;-51
2024/04/15 00:41:42;;;;;;;3.08;0.30;;;;;;;;;;5298994;26;95924;-51
2024/04/15 00:44:07;;;;;;;7.10;0.50;;;;;;;;;;5299853;26;95992;-58
2024/04/15 00:46:32;;;;;;;4.68;0.47;;;;;;;;;;5297817;26;97226;-58
2024/04/15 00:48:58;;;;;;;5.15;0.40;;;;;;;;;;5299236;26;95849;-58
2024/04/15 00:51:25;;;;;;;4.65;0.68;;;;;;;;;;5299247;26;96715;-57
2024/04/15 00:53:53;;;;;;;6.15;0.40;;;;;;;;;;5300737;26;95956;-51
2024/04/15 00:56:21;;;;;;;6.95;0.68;;;;;;;;;;5299025;26;95821;-51
2024/04/15 00:58:47;;;;;;;3.53;0.30;;;;;;;;;;5298630;26;97372;-58
2024/04/15 01:01:14;;;;;;;6.03;0.60;;;;;;;;;;5297996;26;95958;-58
2024/04/15 01:03:39;;;;;;;6.00;0.30;;;;;;;;;;5299058;26;95999;-51
2024/04/15 01:06:05;;;;;;;8.27;0.30;;;;;;;;;;5298407;26;96574;-51
2024/04/15 01:08:31;;;;;;;8.00;0.55;;;;;;;;;;5295962;26;95935;-51
2024/04/15 01:10:57;;;;;;;5.63;0.40;;;;;;;;;;5298607;26;96053;-51
2024/04/15 01:13:22;;;;;;;4.05;0.30;;;;;;;;;;5298221;26;95958;-51
2024/04/15 01:15:55;;;;;;;5.82;0.38;;;;;;;;;;5300822;26;96227;-51
2024/04/15 01:18:20;;;;;;;4.93;0.35;;;;;;;;;;5298520;26;96025;-51
2024/04/15 01:20:45;;;;;;;4.43;0.38;;;;;;;;;;5299144;26;96036;-51
2024/04/15 01:23:14;;;;;;;6.07;0.57;;;;;;;;;;5298184;26;95986;-57
2024/04/15 01:25:40;;;;;;;7.75;0.38;;;;;;;;;;5298161;26;96011;-57
2024/04/15 01:28:05;;;;;;;2.85;0.40;;;;;;;;;;5299733;26;95932;-51
2024/04/15 01:30:31;;;;;;;7.13;0.40;;;;;;;;;;5298830;26;96010;-51
2024/04/15 01:32:58;;;;;;;4.03;0.40;;;;;;;;;;5300049;26;95819;-51
2024/04/15 01:35:24;;;;;;;7.22;0.95;;;;;;;;;;5299095;26;95626;-51
2024/04/15 01:37:50;;;;;;;5.13;0.30;;;;;;;;;;5292577;26;97275;-51
2024/04/15 01:40:15;;;;;;;8.35;0.60;;;;;;;;;;5299743;26;95851;-51
2024/04/15 01:42:41;;;;;;;4.15;0.40;;;;;;;;;;5299227;26;96115;-51
2024/04/15 01:45:06;;;;;;;5.35;0.50;;;;;;;;;;5281160;26;96117;-52
2024/04/15 01:47:34;;;;;;;3.40;0.90;;;;;;;;;;5299508;26;95736;-51
2024/04/15 01:49:59;;;;;;;5.97;0.30;;;;;;;;;;5298671;26;95963;-51
2024/04/15 01:52:24;;;;;;;5.85;0.47;;;;;;;;;;5292035;26;97311;-51
2024/04/15 01:54:50;;;;;;;7.15;0.50;;;;;;;;;;5297881;26;95861;-51
2024/04/15 01:57:15;;;;;;;5.22;0.30;;;;;;;;;;5298725;26;96755;-51
2024/04/15 01:59:40;;;;;;;8.95;0.70;;;;;;;;;;5299348;26;96831;-51
2024/04/15 02:02:06;;;;;;;5.53;0.43;;;;;;;;;;5298481;26;96509;-51
2024/04/15 02:04:31;;;;;;;5.07;0.45;;;;;;;;;;5297049;26;96244;-51
2024/04/15 02:06:56;;;;;;;4.20;0.40;;;;;;;;;;5297914;26;95799;-52
2024/04/15 02:09:22;;;;;;;8.52;0.50;;;;;;;;;;5297655;26;97326;-52
2024/04/15 02:11:47;;;;;;;5.72;0.75;;;;;;;;;;5297445;26;96102;-51
2024/04/15 02:14:12;;;;;;;8.52;0.52;;;;;;;;;;5297904;26;96054;-51
2024/04/15 02:16:38;;;;;;;6.95;0.50;;;;;;;;;;5295905;26;99324;-51
2024/04/15 02:19:03;;;;;;;6.20;0.50;;;;;;;;;;5297245;26;96142;-51
2024/04/15 02:21:28;;;;;;;6.15;0.50;;;;;;;;;;5300414;26;95876;-51
2024/04/15 02:23:53;;;;;;;9.02;0.47;;;;;;;;;;5296796;26;97608;-51
2024/04/15 02:26:19;;;;;;;6.80;0.50;;;;;;;;;;5298014;26;95650;-51
2024/04/15 02:28:44;;;;;;;5.90;0.40;;;;;;;;;;5297546;26;96209;-51
2024/04/15 02:31:09;;;;;;;5.57;0.40;;;;;;;;;;5296869;26;96350;-51
2024/04/15 02:33:35;;;;;;;6.15;0.40;;;;;;;;;;5296526;26;95831;-51
2024/04/15 02:36:00;;;;;;;5.95;0.52;;;;;;;;;;5296897;26;96520;-51
2024/04/15 02:38:26;;;;;;;8.90;0.60;;;;;;;;;;5296002;26;96067;-51
2024/04/15 02:40:52;;;;;;;5.75;0.60;;;;;;;;;;5300487;26;95864;-51
2024/04/15 02:43:17;;;;;;;7.63;0.52;;;;;;;;;;5297079;26;97187;-51
2024/04/15 02:45:43;;;;;;;4.72;0.40;;;;;;;;;;5296477;26;95553;-52
2024/04/15 02:48:08;;;;;;;6.35;1.25;;;;;;;;;;5297344;26;96174;-52
2024/04/15 02:50:33;;;;;;;7.22;0.50;;;;;;;;;;5296307;26;96009;-51
2024/04/15 02:52:59;;;;;;;6.63;0.60;;;;;;;;;;5296714;26;95937;-51
2024/04/15 02:55:24;;;;;;;9.02;0.52;;;;;;;;;;5300962;26;98847;-51
2024/04/15 02:57:49;;;;;;;7.53;0.50;;;;;;;;;;5301112;26;95973;-51
2024/04/15 03:00:15;;;;;;;7.40;0.40;;;;;;;;;;5301269;26;95898;-51
2024/04/15 03:02:40;;;;;;;5.35;0.35;;;;;;;;;;5303974;26;97324;-51
2024/04/15 03:05:06;;;;;;;7.00;0.90;;;;;;;;;;5296667;26;95881;-51
2024/04/15 03:07:31;;;;;;;7.53;0.70;;;;;;;;;;5301181;26;96127;-52
2024/04/15 03:09:57;;;;;;;8.45;0.38;;;;;;;;;;5299745;26;96544;-51
2024/04/15 03:12:23;;;;;;;10.23;0.75;;;;;;;;;;5302194;26;95783;-51
2024/04/15 03:14:48;;;;;;;15.52;0.82;;;;;;;;;;5299498;26;95844;-57
2024/04/15 03:17:14;;;;;;;3.47;0.38;;;;;;;;;;5300041;26;96060;-58
2024/04/15 03:19:39;;;;;;;8.43;0.60;;;;;;;;;;5299863;26;97034;-51
2024/04/15 03:22:05;;;;;;;7.32;0.75;;;;;;;;;;5299985;26;96091;-52
2024/04/15 03:24:30;;;;;;;6.65;0.50;;;;;;;;;;5300058;26;95865;-51
2024/04/15 03:26:58;;;;;;;8.68;1.05;;;;;;;;;;5298616;26;97322;-52
2024/04/15 03:29:23;;;;;;;9.25;0.68;;;;;;;;;;5291668;26;96142;-51
2024/04/15 03:31:48;;;;;;;6.15;0.52;;;;;;;;;;5299112;26;96141;-51
2024/04/15 03:34:14;;;;;;;9.45;1.00;;;;;;;;;;5300025;26;96040;-51
2024/04/15 03:36:39;;;;;;;10.05;0.50;;;;;;;;;;5299250;26;97749;-51
2024/04/15 03:39:04;;;;;;;8.10;0.60;;;;;;;;;;5299452;26;95756;-52
2024/04/15 03:41:29;;;;;;;10.38;1.02;;;;;;;;;;5299815;26;96094;-52
2024/04/15 03:43:55;;;;;;;11.10;0.73;;;;;;;;;;5298762;26;97901;-51
2024/04/15 03:46:21;;;;;;;10.23;0.70;;;;;;;;;;5302767;26;95613;-52
2024/04/15 03:48:46;;;;;;;7.95;0.50;;;;;;;;;;5298962;26;98999;-51
2024/04/15 03:51:11;;;;;;;6.15;1.20;;;;;;;;;;5299701;26;95806;-52
2024/04/15 03:53:36;;;;;;;6.03;0.50;;;;;;;;;;5290118;26;98285;-52
2024/04/15 03:56:02;;;;;;;8.98;0.47;;;;;;;;;;5299351;26;96101;-51
2024/04/15 03:58:27;;;;;;;9.70;0.65;;;;;;;;;;5300139;26;95504;-52
2024/04/15 04:00:59;;;;;;;8.80;0.70;;;;;;;;;;5298097;26;96071;-52
2024/04/15 04:03:25;;;;;;;9.25;0.65;;;;;;;;;;5299555;26;96058;-58
2024/04/15 04:05:54;;;;;;;4.95;0.40;;;;;;;;;;5298613;26;96039;-58
2024/04/15 04:08:19;;;;;;;6.28;0.43;;;;;;;;;;5301949;26;96108;-51
2024/04/15 04:10:45;;;;;;;9.15;0.65;;;;;;;;;;5293518;26;95445;-51
2024/04/15 04:13:10;;;;;;;6.63;0.40;;;;;;;;;;5299463;26;96079;-52
2024/04/15 04:15:37;;;;;;;8.75;0.60;;;;;;;;;;5297895;26;96093;-52
2024/04/15 04:18:04;;;;;;;10.65;0.93;;;;;;;;;;5293436;26;95784;-52
2024/04/15 04:20:30;;;;;;;7.85;0.45;;;;;;;;;;5285336;26;97145;-52
2024/04/15 04:22:55;;;;;;;8.77;0.70;;;;;;;;;;5299685;26;95892;-53
2024/04/15 04:25:21;;;;;;;10.80;1.17;;;;;;;;;;5299692;26;95433;-51
2024/04/15 04:27:46;;;;;;;10.73;0.77;;;;;;;;;;5287563;26;96277;-51
2024/04/15 04:30:12;;;;;;;9.65;0.85;;;;;;;;;;5302631;26;96832;-58
2024/04/15 04:32:37;;;;;;;8.45;0.70;;;;;;;;;;5300572;26;95930;-58
2024/04/15 04:35:02;;;;;;;7.57;1.52;;;;;;;;;;5282588;26;97411;-58
2024/04/15 04:37:28;;;;;;;6.72;0.40;;;;;;;;;;5290739;26;97126;-58
2024/04/15 04:39:53;;;;;;;6.53;0.35;;;;;;;;;;5298729;26;96098;-58
2024/04/15 04:42:18;;;;;;;14.07;0.45;;;;;;;;;;5299125;26;96209;-58
2024/04/15 04:44:44;;;;;;;10.65;1.23;;;;;;;;;;5298347;26;95712;-58
2024/04/15 04:47:09;;;;;;;7.70;0.55;;;;;;;;;;5299430;26;96079;-58
2024/04/15 04:49:34;;;;;;;9.55;0.70;;;;;;;;;;5301500;26;95970;-58
2024/04/15 04:52:00;;;;;;;6.38;0.43;;;;;;;;;;5296949;26;99444;-58
2024/04/15 04:54:25;;;;;;;7.70;0.52;;;;;;;;;;5297963;26;98878;-51
2024/04/15 04:56:52;;;;;;;8.77;0.88;;;;;;;;;;5296264;26;97889;-52
2024/04/15 04:59:17;;;;;;;6.80;0.45;;;;;;;;;;5264193;26;97984;-58
2024/04/15 05:01:42;;;;;;;8.38;0.82;;;;;;;;;;5293949;26;96086;-58
2024/04/15 05:04:10;;;;;;;4.90;0.40;;;;;;;;;;5296607;26;95882;-52
2024/04/15 05:06:36;;;;;;;11.65;0.70;;;;;;;;;;5287411;26;96604;-51
2024/04/15 05:09:02;;;;;;;12.40;0.90;;;;;;;;;;5283042;26;96041;-51
2024/04/15 05:11:28;;;;;;;11.82;0.80;;;;;;;;;;5293589;26;95656;-51
2024/04/15 05:13:54;;;;;;;9.48;0.73;;;;;;;;;;5287662;26;97599;-52
2024/04/15 05:16:19;;;;;;;8.48;0.75;;;;;;;;;;5290547;26;98178;-52
2024/04/15 05:18:44;;;;;;;11.07;0.63;;;;;;;;;;5293202;26;96155;-51
2024/04/15 05:21:13;;;;;;;8.45;0.93;;;;;;;;;;5294290;26;96078;-51
2024/04/15 05:23:38;;;;;;;9.90;0.77;;;;;;;;;;5288745;26;95662;-58
2024/04/15 05:26:03;;;;;;;15.38;0.90;;;;;;;;;;5294349;26;96035;-58
2024/04/15 05:28:29;;;;;;;9.65;1.05;;;;;;;;;;5293141;26;95984;-58
2024/04/15 05:30:56;;;;;;;22.48;1.40;;;;;;;;;;5294130;26;98235;-57
2024/04/15 05:33:22;;;;;;;8.50;1.00;;;;;;;;;;5296617;26;96542;-57
2024/04/15 05:35:48;;;;;;;10.05;1.98;;;;;;;;;;5294597;26;95912;-57
2024/04/15 05:38:14;;;;;;;9.20;1.48;;;;;;;;;;5296100;26;97497;-52
2024/04/15 05:40:39;;;;;;;5.00;0.75;;;;;;;;;;5291113;26;96273;-51
2024/04/15 05:43:08;;;;;;;9.55;0.95;;;;;;;;;;5291751;26;97126;-57
2024/04/15 05:45:34;;;;;;;11.73;1.25;;;;;;;;;;5295222;26;96281;-58
2024/04/15 05:48:00;;;;;;;10.77;1.00;;;;;;;;;;5295844;26;96052;-51
2024/04/15 05:50:25;;;;;;;11.07;0.98;;;;;;;;;;5295248;26;95442;-50
2024/04/15 05:52:51;;;;;;;7.95;1.00;;;;;;;;;;5294211;26;95952;-50
2024/04/15 05:55:16;;;;;;;9.65;1.35;;;;;;;;;;5297646;26;96485;-50
2024/04/15 05:57:42;;;;;;;11.52;0.90;;;;;;;;;;5284242;26;97909;-52
2024/04/15 06:00:07;;;;;;;9.10;0.82;;;;;;;;;;5288645;26;96752;-51
2024/04/15 06:02:33;;;;;;;8.05;1.08;;;;;;;;;;5291453;26;95764;-52
2024/04/15 06:04:58;;;;;;;9.98;0.52;;;;;;;;;;5290901;26;96224;-57
2024/04/15 06:07:23;;;;;;;15.32;1.10;;;;;;;;;;5287794;26;98474;-57
2024/04/15 06:09:50;;;;;;;13.90;0.98;;;;;;;;;;5286471;26;95949;-57
2024/04/15 06:12:15;;;;;;;11.65;0.60;;;;;;;;;;5292465;26;96224;-57
2024/04/15 06:14:41;;;;;;;15.00;0.93;;;;;;;;;;5290967;26;97159;-50
2024/04/15 06:17:06;;;;;;;9.38;0.90;;;;;;;;;;5289787;26;95654;-51
2024/04/15 06:19:31;;;;;;;6.97;0.55;;;;;;;;;;5258545;26;99155;-51
2024/04/15 06:21:58;;;;;;;9.85;0.65;;;;;;;;;;5294099;26;95605;-49
2024/04/15 06:24:24;;;;;;;9.30;0.60;;;;;;;;;;5294150;26;97101;-52
2024/04/15 06:26:49;;;;;;;5.07;0.80;;;;;;;;;;5295457;26;95911;-51
2024/04/15 06:29:14;;;;;;;6.47;0.40;;;;;;;;;;5297103;26;97142;-50
2024/04/15 06:31:39;;;;;;;10.25;0.73;;;;;;;;;;5297127;26;97206;-50
2024/04/15 06:34:05;;;;;;;6.53;0.70;;;;;;;;;;5292955;26;98157;-50
2024/04/15 06:36:31;;;;;;;6.55;0.45;;;;;;;;;;5298442;26;95743;-51
2024/04/15 06:38:56;;;;;;;12.68;0.68;;;;;;;;;;5297699;26;96072;-51
2024/04/15 06:41:21;;;;;;;5.53;0.40;;;;;;;;;;5297702;26;95834;-52
2024/04/15 06:43:47;;;;;;;7.57;0.38;;;;;;;;;;5298348;26;99386;-51
2024/04/15 06:46:12;;;;;;;8.48;0.40;;;;;;;;;;5297140;26;96204;-51
2024/04/15 06:48:40;;;;;;;6.40;0.40;;;;;;;;;;5292564;26;95820;-53
2024/04/15 06:51:06;;;;;;;5.80;0.32;;;;;;;;;;5296629;26;96098;-54
2024/04/15 06:53:31;;;;;;;15.95;2.75;;;;;;;;;;5280898;26;97931;-50
2024/04/15 06:55:56;;;;;;;9.60;0.70;;;;;;;;;;5298104;26;95679;-50
2024/04/15 06:58:21;;;;;;;13.23;0.98;;;;;;;;;;5292564;26;98659;-50
2024/04/15 07:00:47;;;;;;;5.05;0.43;;;;;;;;;;5298386;26;95876;-51
2024/04/15 07:03:12;;;;;;;6.60;0.60;;;;;;;;;;5296457;26;97428;-51
2024/04/15 07:05:37;;;;;;;7.75;0.93;;;;;;;;;;5297189;26;99928;-50
2024/04/15 07:08:04;;;;;;;9.80;0.50;;;;;;;;;;5298745;26;95636;-51
2024/04/15 07:10:29;;;;;;;6.32;0.45;;;;;;;;;;5296021;26;97342;-51
2024/04/15 07:12:54;;;;;;;11.18;0.52;;;;;;;;;;5276953;26;96409;-50
2024/04/15 07:15:20;;;;;;;6.68;1.15;;;;;;;;;;5298498;26;97251;-50
2024/04/15 07:17:45;;;;;;;7.45;0.98;;;;;;;;;;5270022;26;97113;-51
2024/04/15 07:20:10;;;;;;;5.78;0.30;;;;;;;;;;5300146;26;96722;-50
2024/04/15 07:22:36;;;;;;;8.00;0.50;;;;;;;;;;5296919;26;95911;-50
2024/04/15 07:25:04;;;;;;;5.03;0.32;;;;;;;;;;5294488;26;96141;-58
2024/04/15 07:27:33;;;;;;;6.47;0.57;;;;;;;;;;5291449;26;95871;-58
2024/04/15 07:29:58;;;;;;;9.50;1.53;;;;;;;;;;5286613;26;95852;-55
2024/04/15 07:32:23;;;;;;;5.60;1.40;;;;;;;;;;5292642;26;97333;-60
2024/04/15 07:34:49;;;;;;;5.38;0.30;;;;;;;;;;5292262;26;95960;-59
2024/04/15 07:37:14;;;;;;;8.65;0.50;;;;;;;;;;5289631;26;96189;-57
2024/04/15 07:39:39;;;;;;;9.45;0.40;;;;;;;;;;5270746;26;97284;-61
2024/04/15 07:42:06;;;;;;;8.57;0.30;;;;;;;;;;5289508;26;95446;-58
2024/04/15 07:44:31;;;;;;;9.20;0.38;;;;;;;;;;5285690;26;96074;-55
2024/04/15 07:46:57;;;;;;;8.73;0.50;;;;;;;;;;5287225;26;97095;-58
2024/04/15 07:49:22;;;;;;;6.70;0.30;;;;;;;;;;5294702;26;96148;-70
2024/04/15 07:51:47;;;;;;;8.05;0.73;;;;;;;;;;5288679;26;96273;-67
2024/04/15 07:54:12;;;;;;;7.53;0.43;;;;;;;;;;5296149;26;95748;-57
2024/04/15 07:56:38;;;;;;;4.88;0.30;;;;;;;;;;5294821;26;97990;-55
2024/04/15 07:59:04;;;;;;;7.30;0.50;;;;;;;;;;5288267;26;97929;-54
2024/04/15 08:01:29;;;;;;;4.65;0.30;;;;;;;;;;5285797;26;95849;-54
2024/04/15 08:03:54;;;;;;;13.57;0.77;;;;;;;;;;5280457;26;97277;-68
2024/04/15 08:06:19;;;;;;;5.65;0.70;;;;;;;;;;5297731;26;95815;-70
2024/04/15 08:08:45;;;;;;;9.02;0.43;;;;;;;;;;5297056;26;96083;-67
2024/04/15 08:11:10;;;;;;;6.40;0.30;;;;;;;;;;5300252;26;96596;-64
2024/04/15 08:13:35;;;;;;;7.05;0.40;;;;;;;;;;5299365;26;96341;-68
2024/04/15 08:16:01;;;;;;;12.80;0.47;;;;;;;;;;5298752;26;96062;-63
2024/04/15 08:18:26;;;;;;;6.20;0.50;;;;;;;;;;5299296;26;96567;-63
2024/04/15 08:20:55;;;;;;;6.75;0.45;;;;;;;;;;5299777;26;96441;-61
2024/04/15 08:23:21;;;;;;;7.47;0.50;;;;;;;;;;5297778;26;95946;-61
2024/04/15 08:25:56;;;;;;;6.60;0.30;;;;;;;;;;5302775;26;96593;-60
2024/04/15 08:28:22;;;;;;;6.15;0.60;;;;;;;;;;5299914;26;97307;-61
2024/04/15 08:30:48;;;;;;;5.97;0.52;;;;;;;;;;5297342;26;96148;-61
2024/04/15 08:33:13;;;;;;;9.45;0.63;;;;;;;;;;5300675;26;95333;-60
2024/04/15 08:35:39;;;;;;;5.05;0.30;;;;;;;;;;5300121;26;99187;-61
2024/04/15 08:38:06;;;;;;;6.63;0.50;;;;;;;;;;5299836;26;96666;-55
2024/04/15 08:40:31;;;;;;;5.60;0.60;;;;;;;;;;5299738;26;96008;-53
2024/04/15 08:42:58;;;;;;;5.38;0.70;;;;;;;;;;5288487;26;95902;-60
2024/04/15 08:45:23;;;;;;;7.60;0.50;;;;;;;;;;5299053;26;96132;-60
2024/04/15 08:47:52;;;;;;;5.38;0.35;;;;;;;;;;5303510;26;95513;-61
2024/04/15 08:50:20;;;;;;;4.32;0.28;;;;;;;;;;5299287;26;96126;-61
2024/04/15 08:52:47;;;;;;;8.43;0.20;;;;;;;;;;5294071;26;96038;-69
2024/04/15 08:55:13;;;;;;;5.03;0.30;;;;;;;;;;5297955;26;96488;-60
2024/04/15 08:57:39;;;;;;;9.07;0.55;;;;;;;;;;5292331;26;95971;-60
2024/04/15 09:00:06;;;;;;;6.97;0.60;;;;;;;;;;5298525;26;95768;-61
2024/04/15 09:02:31;;;;;;;5.20;0.40;;;;;;;;;;5299352;26;96676;-60
2024/04/15 09:04:57;;;;;;;11.80;0.68;;;;;;;;;;5297493;26;96238;-60
2024/04/15 09:07:23;;;;;;;8.75;0.50;;;;;;;;;;5302251;26;95447;-60
2024/04/15 09:09:48;;;;;;;7.68;0.82;;;;;;;;;;5295352;26;96079;-61
2024/04/15 09:12:14;;;;;;;7.85;0.52;;;;;;;;;;5299624;26;97689;-60
2024/04/15 09:14:39;;;;;;;4.97;0.60;;;;;;;;;;5297613;26;101893;-60
2024/04/15 09:17:05;;;;;;;9.15;1.17;;;;;;;;;;5298539;26;96051;-64
2024/04/15 09:19:32;;;;;;;8.27;1.38;;;;;;;;;;5287277;26;95697;-54
2024/04/15 09:22:01;;;;;;;7.07;0.30;;;;;;;;;;5297065;26;96082;-54
2024/04/15 09:24:26;;;;;;;6.90;0.40;;;;;;;;;;5294932;26;96991;-55
2024/04/15 09:26:52;;;;;;;8.32;0.30;;;;;;;;;;5292374;26;95866;-56
2024/04/15 09:29:17;;;;;;;8.60;0.43;;;;;;;;;;5268494;26;97143;-56
2024/04/15 09:31:43;;;;;;;7.72;0.47;;;;;;;;;;5288373;26;97783;-58
2024/04/15 09:34:09;;;;;;;9.85;1.67;;;;;;;;;;5294824;26;96089;-59
2024/04/15 09:36:40;;;;;;;5.85;0.32;;;;;;;;;;5297466;26;96010;-57
2024/04/15 09:39:06;;;;;;;4.13;0.20;;;;;;;;;;5288493;26;95493;-57
2024/04/15 09:41:32;;;;;;;5.18;0.50;;;;;;;;;;5283097;26;96102;-56
2024/04/15 09:43:59;;;;;;;4.72;0.25;;;;;;;;;;5296503;26;97290;-59
2024/04/15 09:46:31;;;;;;;5.45;0.20;;;;;;;;;;5298136;26;95763;-55
2024/04/15 09:48:56;;;;;;;2.83;0.28;;;;;;;;;;5297899;26;96000;-57
2024/04/15 09:51:23;;;;;;;5.93;0.20;;;;;;;;;;5301149;26;96048;-58
2024/04/15 09:53:52;;;;;;;6.35;0.30;;;;;;;;;;5294707;26;97651;-58
2024/04/15 09:56:28;;;;;;;8.30;0.68;;;;;;;;;;5293130;26;96005;-59
2024/04/15 09:58:56;;;;;;;7.28;0.50;;;;;;;;;;5297315;26;95719;-59
2024/04/15 10:01:32;;;;;;;8.52;0.35;;;;;;;;;;5296500;26;96792;-55
2024/04/15 10:04:02;;;;;;;6.50;0.40;;;;;;;;;;5296909;26;97329;-55
2024/04/15 10:06:47;;;;;;;3.20;0.20;;;;;;;;;;5300221;26;95886;-55
2024/04/15 10:09:15;;;;;;;4.13;0.20;;;;;;;;;;5301153;26;96031;-58
2024/04/15 10:11:41;;;;;;;4.00;0.20;;;;;;;;;;5299996;26;95997;-58
2024/04/15 10:14:07;;;;;;;6.18;0.25;;;;;;;;;;5303791;26;95754;-59
2024/04/15 10:16:36;;;;;;;2.17;0.20;;;;;;;;;;5275903;26;96023;-58
2024/04/15 10:19:01;;;;;;;2.80;0.10;;;;;;;;;;5299746;26;95902;-54
2024/04/15 10:21:26;;;;;;;1.83;0.20;;;;;;;;;;5300471;26;96011;-54
2024/04/15 10:23:54;;;;;;;3.15;0.10;;;;;;;;;;5297011;26;97150;-57
2024/04/15 10:26:22;;;;;;;3.08;0.20;;;;;;;;;;5287455;26;97949;-57
2024/04/15 10:28:48;;;;;;;3.22;0.20;;;;;;;;;;5298878;26;96273;-58
2024/04/15 10:31:14;;;;;;;4.57;0.20;;;;;;;;;;5298080;26;96070;-57
2024/04/15 10:33:50;;;;;;;1.75;0.55;;;;;;;;;;5299653;26;95696;-53
2024/04/15 10:36:15;;;;;;;4.63;0.35;;;;;;;;;;5303053;26;95833;-54
2024/04/15 10:39:03;;;;;;;4.68;0.17;;;;;;;;;;5298878;26;95560;-54
2024/04/15 10:41:29;;;;;;;2.25;0.10;;;;;;;;;;5300120;26;97225;-60
2024/04/15 10:43:55;;;;;;;6.75;0.52;;;;;;;;;;5298349;26;96070;-57
2024/04/15 10:46:21;;;;;;;1.67;0.20;;;;;;;;;;5269114;26;96162;-56
2024/04/15 10:48:47;;;;;;;6.78;0.30;;;;;;;;;;5296089;26;96170;-58
2024/04/15 10:51:12;;;;;;;4.97;0.30;;;;;;;;;;5297775;26;96734;-54
2024/04/15 10:53:37;;;;;;;6.63;0.57;;;;;;;;;;5297386;26;95859;-57
2024/04/15 10:56:03;;;;;;;3.40;0.20;;;;;;;;;;5297106;26;95938;-53
2024/04/15 10:58:29;;;;;;;7.47;0.20;;;;;;;;;;5300440;26;96123;-55
2024/04/15 11:00:55;;;;;;;5.97;0.20;;;;;;;;;;5295658;26;96025;-58
2024/04/15 11:03:23;;;;;;;3.78;0.30;;;;;;;;;;5296614;26;96005;-59
2024/04/15 11:05:49;;;;;;;4.22;0.43;;;;;;;;;;5297078;26;95960;-56
2024/04/15 11:08:15;;;;;;;7.90;0.30;;;;;;;;;;5214451;26;100156;-55
2024/04/15 11:10:41;;;;;;;5.88;0.40;;;;;;;;;;5295947;26;96212;-53
2024/04/15 11:13:13;;;;;;;9.18;0.20;;;;;;;;;;5297521;26;95924;-54
2024/04/15 11:15:39;;;;;;;4.82;0.30;;;;;;;;;;5295552;26;96177;-53
2024/04/15 11:18:12;;;;;;;5.50;0.10;;;;;;;;;;5301096;26;97933;-52
2024/04/15 11:20:38;;;;;;;3.50;0.40;;;;;;;;;;5294911;26;96097;-53
2024/04/15 11:23:03;;;;;;;2.72;0.20;;;;;;;;;;5298364;26;96017;-57
2024/04/15 11:25:28;;;;;;;1.35;0.10;;;;;;;;;;5284161;26;95820;-51
2024/04/15 11:27:57;;;;;;;5.78;0.30;;;;;;;;;;5297557;26;95856;-51
2024/04/15 11:30:25;;;;;;;5.97;0.20;;;;;;;;;;5296534;26;96080;-54
2024/04/15 11:32:51;;;;;;;8.10;0.35;;;;;;;;;;5298320;26;96062;-54
2024/04/15 11:35:17;;;;;;;1.98;0.10;;;;;;;;;;5296963;26;97127;-53
2024/04/15 11:37:42;;;;;;;5.80;0.20;;;;;;;;;;5297543;26;96014;-53
2024/04/15 11:40:11;;;;;;;5.72;0.40;;;;;;;;;;5300227;26;95829;-53
2024/04/15 11:42:38;;;;;;;3.08;0.45;;;;;;;;;;5299015;26;96128;-53
2024/04/15 11:45:06;;;;;;;3.90;0.20;;;;;;;;;;5297622;26;96067;-51
2024/04/15 11:47:32;;;;;;;5.80;0.20;;;;;;;;;;5300312;26;96480;-51
2024/04/15 11:50:00;;;;;;;2.53;0.20;;;;;;;;;;5298031;26;96025;-54
2024/04/15 11:52:25;;;;;;;3.92;0.20;;;;;;;;;;5300042;26;95547;-52
2024/04/15 11:54:51;;;;;;;6.18;0.65;;;;;;;;;;5295734;26;97313;-53
2024/04/15 11:57:16;;;;;;;3.47;0.55;;;;;;;;;;5214807;26;99850;-54
2024/04/15 11:59:41;;;;;;;3.72;0.30;;;;;;;;;;5297830;26;96092;-54
2024/04/15 12:02:10;;;;;;;7.20;0.35;;;;;;;;;;5301134;26;98763;-54
2024/04/15 12:04:35;;;;;;;6.03;0.38;;;;;;;;;;5297598;26;95576;-51
2024/04/15 12:07:00;;;;;;;6.97;0.20;;;;;;;;;;5299785;26;96107;-50
2024/04/15 12:09:27;;;;;;;2.65;0.30;;;;;;;;;;5298318;26;96352;-50
2024/04/15 12:11:53;;;;;;;6.18;0.85;;;;;;;;;;5297708;26;98483;-51
2024/04/15 12:14:19;;;;;;;7.07;0.20;;;;;;;;;;5299016;26;96386;-54
2024/04/15 12:16:45;;;;;;;3.50;0.20;;;;;;;;;;5296664;26;97966;-55
2024/04/15 12:19:10;;;;;;;12.18;1.75;;;;;;;;;;5299232;26;97883;-51
2024/04/15 12:21:35;;;;;;;18.42;0.63;;;;;;;;;;5299213;26;96012;-54
2024/04/15 12:24:01;;;;;;;5.63;0.25;;;;;;;;;;5301941;26;97441;-52
2024/04/15 12:26:26;;;;;;;9.40;0.25;;;;;;;;;;5297689;26;96293;-51
2024/04/15 12:28:52;;;;;;;3.15;0.30;;;;;;;;;;5297622;26;96565;-52
2024/04/15 12:31:17;;;;;;;10.00;0.13;;;;;;;;;;5297968;26;95766;-54
2024/04/15 12:33:43;;;;;;;3.67;0.20;;;;;;;;;;5299053;26;96077;-54
2024/04/15 12:36:10;;;;;;;4.75;0.20;;;;;;;;;;5297725;26;96021;-53
2024/04/15 12:38:35;;;;;;;8.82;0.40;;;;;;;;;;5298174;26;95867;-53
2024/04/15 12:41:01;;;;;;;3.08;0.10;;;;;;;;;;5299895;26;98053;-52
2024/04/15 12:43:26;;;;;;;3.97;0.10;;;;;;;;;;5264100;26;97288;-52
2024/04/15 12:45:51;;;;;;;3.63;0.20;;;;;;;;;;5299479;26;95525;-53
2024/04/15 12:48:18;;;;;;;5.57;0.10;;;;;;;;;;5300078;26;96110;-51
2024/04/15 12:50:44;;;;;;;5.22;0.20;;;;;;;;;;5299345;26;95843;-53
2024/04/15 12:53:10;;;;;;;5.85;0.22;;;;;;;;;;5300723;26;97092;-51
2024/04/15 12:55:36;;;;;;;3.30;0.20;;;;;;;;;;5298406;26;96149;-51
2024/04/15 12:58:03;;;;;;;1.17;0.20;;;;;;;;;;5299697;26;95814;-52
2024/04/15 13:00:29;;;;;;;1.00;0.15;;;;;;;;;;5270515;26;98803;-51
2024/04/15 13:02:54;;;;;;;3.40;0.10;;;;;;;;;;5298696;26;95956;-52
2024/04/15 13:05:19;;;;;;;1.88;0.73;;;;;;;;;;5302409;26;96437;-51
2024/04/15 13:07:45;;;;;;;2.00;0.10;;;;;;;;;;5298221;26;96150;-55
2024/04/15 13:10:11;;;;;;;1.95;0.10;;;;;;;;;;5298023;26;95897;-50
2024/04/15 13:12:36;;;;;;;0.98;0.10;;;;;;;;;;5297885;26;96145;-51
2024/04/15 13:15:03;;;;;;;2.67;0.10;;;;;;;;;;5296184;26;97338;-53
2024/04/15 13:17:29;;;;;;;1.70;0.10;;;;;;;;;;5299237;26;95736;-51
2024/04/15 13:19:54;;;;;;;1.88;0.20;;;;;;;;;;5296149;26;96094;-53
2024/04/15 13:22:20;;;;;;;1.75;0.13;;;;;;;;;;5299025;26;95969;-53
2024/04/15 13:24:45;;;;;;;0.82;0.10;;;;;;;;;;5296898;26;96215;-53
2024/04/15 13:27:10;;;;;;;1.15;0.13;;;;;;;;;;5301159;26;97234;-50
2024/04/15 13:29:35;;;;;;;2.40;0.13;;;;;;;;;;5316500;26;95671;-50
2024/04/15 13:32:02;;;;;;;4.97;0.13;;;;;;;;;;5297625;26;97961;-55
2024/04/15 13:34:27;;;;;;;5.28;0.20;;;;;;;;;;5298533;26;96016;-51
2024/04/15 13:36:55;;;;;;;2.30;0.10;;;;;;;;;;5295695;26;96513;-53
2024/04/15 13:39:22;;;;;;;3.65;0.10;;;;;;;;;;5297579;26;96059;-50
2024/04/15 13:41:47;;;;;;;5.18;0.10;;;;;;;;;;5297287;26;97304;-50
2024/04/15 13:44:13;;;;;;;2.05;0.10;;;;;;;;;;5276407;26;96124;-51
2024/04/15 13:46:38;;;;;;;2.95;0.10;;;;;;;;;;5296031;26;96125;-52
2024/04/15 13:49:03;;;;;;;0.20;0.05;;;;;;;;;;5301234;26;96016;-54
2024/04/15 13:51:29;;;;;;;1.75;0.20;;;;;;;;;;5297546;26;96122;-52
2024/04/15 13:53:55;;;;;;;3.90;0.20;;;;;;;;;;5295022;26;95794;-54
2024/04/15 13:56:20;;;;;;;3.03;0.10;;;;;;;;;;5288234;26;97188;-51
2024/04/15 13:58:46;;;;;;;3.17;0.20;;;;;;;;;;5296894;26;96435;-51
2024/04/15 14:01:12;;;;;;;2.17;0.10;;;;;;;;;;5295059;26;96232;-51
2024/04/15 14:03:37;;;;;;;3.22;0.30;;;;;;;;;;5298610;26;96682;-56
2024/04/15 14:06:02;;;;;;;10.25;0.30;;;;;;;;;;5297247;26;96238;-53
2024/04/15 14:08:28;;;;;;;2.10;0.13;;;;;;;;;;5298617;26;96071;-52
2024/04/15 14:10:53;;;;;;;1.60;0.10;;;;;;;;;;5299749;26;96011;-53
2024/04/15 14:13:18;;;;;;;2.22;0.20;;;;;;;;;;5297755;26;96011;-50
2024/04/15 14:15:44;;;;;;;1.95;0.10;;;;;;;;;;5297748;26;95784;-54
2024/04/15 14:18:09;;;;;;;2.45;0.57;;;;;;;;;;5298351;26;95970;-54
2024/04/15 14:20:34;;;;;;;5.80;0.10;;;;;;;;;;5296730;26;96290;-54
2024/04/15 14:23:00;;;;;;;1.98;0.10;;;;;;;;;;5298979;26;96327;-50
2024/04/15 14:25:28;;;;;;;3.10;0.10;;;;;;;;;;5295016;26;97458;-51
2024/04/15 14:27:53;;;;;;;4.28;0.28;;;;;;;;;;5296657;26;95908;-51
2024/04/15 14:30:19;;;;;;;3.38;0.40;;;;;;;;;;5295865;26;95455;-53
2024/04/15 14:32:45;;;;;;;6.28;0.20;;;;;;;;;;5299872;26;96864;-52